createdAt,value
2019-03-21T00:00:17.242Z,79.50
2019-03-21T00:01:17.231Z,79.20
2019-03-21T00:02:17.220Z,79.41
2019-03-21T00:03:17.214Z,79.50
2019-03-21T00:04:17.198Z,79.10
2019-03-21T00:05:17.237Z,79.10
2019-03-21T00:06:17.181Z,78.93
2019-03-21T00:07:17.165Z,79.10
2019-03-21T00:08:17.158Z,79.82
2019-03-21T00:09:17.144Z,79.10
2019-03-21T00:10:17.180Z,79.30
2019-03-21T00:11:17.132Z,79.30
2019-03-21T00:12:17.122Z,79.30
2019-03-21T00:13:17.096Z,79.20
2019-03-21T00:14:17.090Z,79.24
2019-03-21T00:15:17.123Z,79.71
2019-03-21T00:16:17.138Z,79.34
2019-03-21T00:17:17.052Z,79.30
2019-03-21T00:18:17.049Z,79.34
2019-03-21T00:19:17.032Z,79.24
2019-03-21T00:20:17.019Z,79.64
2019-03-21T00:21:17.011Z,79.44
2019-03-21T00:22:17.047Z,79.44
2019-03-21T00:23:16.985Z,79.54
2019-03-21T00:24:16.979Z,79.54
2019-03-21T00:25:17.013Z,79.44
2019-03-21T00:26:16.954Z,79.64
2019-03-21T00:27:16.985Z,79.64
2019-03-21T00:28:16.940Z,79.75
2019-03-21T00:29:16.925Z,79.44
2019-03-21T00:30:16.907Z,79.34
2019-03-21T00:31:16.906Z,79.24
2019-03-21T00:32:16.890Z,79.13
2019-03-21T00:33:16.922Z,79.13
2019-03-21T00:34:16.868Z,79.13
2019-03-21T00:35:16.856Z,79.44
2019-03-21T00:36:16.844Z,79.34
2019-03-21T00:37:16.837Z,79.24
2019-03-21T00:38:16.821Z,79.24
2019-03-21T00:39:16.893Z,79.24
2019-03-21T00:40:16.801Z,79.13
2019-03-21T00:41:16.786Z,79.44
2019-03-21T00:42:16.779Z,79.24
2019-03-21T00:43:16.792Z,79.85
2019-03-21T00:44:18.347Z,79.13
2019-03-21T00:45:16.789Z,79.75
2019-03-21T00:46:16.738Z,79.03
2019-03-21T00:47:16.721Z,78.93
2019-03-21T00:48:16.754Z,79.03
2019-03-21T00:49:16.698Z,79.44
2019-03-21T00:50:16.691Z,79.75
2019-03-21T00:51:16.683Z,79.44
2019-03-21T00:52:16.723Z,79.64
2019-03-21T00:53:16.660Z,79.64
2019-03-21T00:54:16.690Z,79.13
2019-03-21T00:55:16.631Z,79.24
2019-03-21T00:56:16.622Z,79.34
2019-03-21T00:57:16.608Z,79.13
2019-03-21T00:58:16.600Z,79.48
2019-03-21T00:59:16.616Z,79.44
2019-03-21T01:00:16.580Z,79.44
2019-03-21T01:01:16.564Z,79.64
2019-03-21T01:02:16.552Z,79.54
2019-03-21T01:03:16.609Z,79.54
2019-03-21T01:04:16.536Z,79.44
2019-03-21T01:05:16.518Z,79.75
2019-03-21T01:06:16.515Z,79.96
2019-03-21T01:07:16.497Z,79.96
2019-03-21T01:08:16.491Z,80.16
2019-03-21T01:09:16.524Z,80.05
2019-03-21T01:10:16.474Z,80.36
2019-03-21T01:11:16.464Z,80.09
2019-03-21T01:12:16.451Z,80.26
2019-03-21T01:13:16.437Z,80.26
2019-03-21T01:14:16.454Z,80.05
2019-03-21T01:15:16.441Z,80.16
2019-03-21T01:16:16.401Z,80.09
2019-03-21T01:17:16.389Z,80.05
2019-03-21T01:18:16.376Z,80.60
2019-03-21T01:19:16.373Z,79.89
2019-03-21T01:20:16.358Z,80.19
2019-03-21T01:21:16.351Z,79.99
2019-03-21T01:22:16.331Z,79.96
2019-03-21T01:23:16.320Z,80.60
2019-03-21T01:24:16.313Z,80.09
2019-03-21T01:25:16.296Z,80.19
2019-03-21T01:26:16.333Z,80.05
2019-03-21T01:27:16.278Z,80.40
2019-03-21T01:28:16.278Z,80.19
2019-03-21T01:29:16.253Z,80.05
2019-03-21T01:30:16.306Z,80.36
2019-03-21T01:31:16.233Z,80.40
2019-03-21T01:32:16.223Z,80.71
2019-03-21T01:33:16.218Z,80.67
2019-03-21T01:34:16.199Z,80.81
2019-03-21T01:35:16.193Z,80.30
2019-03-21T01:36:16.249Z,80.67
2019-03-21T01:37:16.177Z,80.46
2019-03-21T01:38:16.151Z,80.60
2019-03-21T01:39:16.145Z,80.71
2019-03-21T01:40:16.141Z,80.71
2019-03-21T01:41:16.121Z,80.51
2019-03-21T01:42:16.138Z,80.88
2019-03-21T01:43:16.101Z,80.60
2019-03-21T01:44:16.092Z,80.60
2019-03-21T01:45:16.076Z,80.88
2019-03-21T01:46:16.111Z,80.98
2019-03-21T01:47:16.062Z,81.08
2019-03-21T01:48:16.089Z,81.01
2019-03-21T01:49:16.030Z,80.98
2019-03-21T01:50:16.024Z,80.40
2019-03-21T01:51:16.083Z,80.40
2019-03-21T01:52:16.000Z,80.40
2019-03-21T01:53:15.987Z,81.01
2019-03-21T01:54:15.979Z,80.40
2019-03-21T01:55:15.965Z,81.01
2019-03-21T01:56:15.959Z,80.77
2019-03-21T01:57:15.988Z,80.19
2019-03-21T01:58:15.931Z,80.91
2019-03-21T01:59:15.936Z,80.88
2019-03-21T02:00:15.913Z,80.91
2019-03-21T02:01:16.019Z,80.91
2019-03-21T02:02:15.886Z,81.01
2019-03-21T02:03:15.874Z,80.71
2019-03-21T02:04:15.867Z,80.81
2019-03-21T02:05:15.859Z,80.81
2019-03-21T02:06:15.845Z,81.01
2019-03-21T02:07:15.847Z,80.57
2019-03-21T02:08:15.818Z,80.57
2019-03-21T02:09:15.806Z,80.60
2019-03-21T02:10:15.801Z,80.60
2019-03-21T02:11:15.791Z,80.60
2019-03-21T02:12:15.861Z,80.36
2019-03-21T02:13:15.764Z,81.12
2019-03-21T02:14:15.752Z,81.01
2019-03-21T02:15:15.742Z,81.22
2019-03-21T02:16:15.737Z,81.32
2019-03-21T02:17:15.722Z,81.32
2019-03-21T02:18:15.786Z,81.22
2019-03-21T02:19:15.752Z,81.52
2019-03-21T02:20:15.687Z,81.32
2019-03-21T02:21:15.680Z,81.12
2019-03-21T02:22:15.727Z,81.12
2019-03-21T02:23:15.652Z,81.32
2019-03-21T02:24:15.640Z,81.43
2019-03-21T02:25:15.639Z,81.52
2019-03-21T02:26:15.619Z,81.32
2019-03-21T02:27:15.670Z,81.12
2019-03-21T02:28:15.601Z,81.08
2019-03-21T02:29:15.591Z,81.22
2019-03-21T02:30:15.576Z,81.22
2019-03-21T02:31:15.571Z,80.91
2019-03-21T02:32:15.559Z,81.63
2019-03-21T02:33:15.613Z,81.63
2019-03-21T02:34:15.533Z,81.32
2019-03-21T02:35:15.524Z,81.73
2019-03-21T02:36:15.513Z,81.63
2019-03-21T02:37:15.497Z,81.32
2019-03-21T02:38:15.558Z,81.22
2019-03-21T02:39:15.480Z,81.32
2019-03-21T02:40:15.483Z,81.43
2019-03-21T02:41:15.490Z,81.32
2019-03-21T02:42:15.442Z,82.04
2019-03-21T02:43:15.523Z,82.24
2019-03-21T02:44:15.483Z,82.45
2019-03-21T02:45:15.487Z,82.24
2019-03-21T02:46:15.403Z,82.45
2019-03-21T02:47:15.390Z,82.24
2019-03-21T02:48:15.381Z,82.24
2019-03-21T02:49:15.370Z,82.35
2019-03-21T02:50:15.431Z,82.65
2019-03-21T02:51:15.348Z,82.35
2019-03-21T02:52:15.340Z,82.24
2019-03-21T02:53:15.319Z,82.65
2019-03-21T02:54:15.308Z,82.55
2019-03-21T02:55:15.302Z,82.65
2019-03-21T02:56:15.327Z,82.45
2019-03-21T02:57:15.282Z,82.24
2019-03-21T02:58:15.264Z,82.45
2019-03-21T02:59:15.260Z,82.45
2019-03-21T03:00:15.247Z,82.45
2019-03-21T03:01:15.236Z,82.24
2019-03-21T03:02:15.283Z,82.35
2019-03-21T03:03:15.210Z,82.35
2019-03-21T03:04:15.204Z,82.24
2019-03-21T03:05:15.188Z,82.55
2019-03-21T03:06:15.180Z,82.35
2019-03-21T03:07:15.238Z,82.24
2019-03-21T03:08:15.153Z,82.24
2019-03-21T03:09:15.142Z,82.35
2019-03-21T03:10:15.133Z,82.45
2019-03-21T03:11:15.122Z,82.45
2019-03-21T03:12:15.111Z,82.24
2019-03-21T03:13:15.146Z,82.45
2019-03-21T03:14:15.117Z,82.24
2019-03-21T03:15:22.504Z,82.24
2019-03-21T03:16:16.068Z,82.04
2019-03-21T03:17:15.053Z,81.94
2019-03-21T03:18:15.087Z,82.04
2019-03-21T03:19:15.037Z,82.24
2019-03-21T03:20:15.026Z,82.04
2019-03-21T03:21:15.013Z,82.00
2019-03-21T03:22:15.034Z,82.04
2019-03-21T03:23:14.991Z,81.84
2019-03-21T03:24:15.022Z,81.94
2019-03-21T03:25:14.982Z,81.94
2019-03-21T03:26:14.955Z,81.84
2019-03-21T03:27:14.950Z,81.43
2019-03-21T03:28:14.932Z,81.32
2019-03-21T03:29:14.947Z,81.32
2019-03-21T03:30:14.910Z,81.32
2019-03-21T03:31:14.916Z,81.43
2019-03-21T03:32:14.891Z,81.79
2019-03-21T03:33:14.879Z,81.94
2019-03-21T03:34:14.871Z,81.43
2019-03-21T03:35:14.903Z,81.43
2019-03-21T03:36:14.846Z,81.52
2019-03-21T03:37:14.838Z,81.43
2019-03-21T03:38:14.849Z,81.43
2019-03-21T03:39:14.807Z,81.43
2019-03-21T03:40:14.873Z,81.63
2019-03-21T03:41:14.793Z,81.73
2019-03-21T03:42:14.780Z,81.52
2019-03-21T03:43:14.854Z,81.52
2019-03-21T03:44:14.758Z,81.22
2019-03-21T03:45:14.746Z,81.12
2019-03-21T03:46:14.799Z,81.32
2019-03-21T03:47:14.727Z,81.52
2019-03-21T03:48:14.718Z,81.43
2019-03-21T03:49:14.717Z,81.43
2019-03-21T03:50:14.708Z,81.43
2019-03-21T03:51:14.679Z,81.52
2019-03-21T03:52:14.720Z,81.01
2019-03-21T03:53:14.653Z,81.12
2019-03-21T03:54:14.646Z,81.01
2019-03-21T03:55:14.642Z,81.12
2019-03-21T03:56:14.668Z,81.12
2019-03-21T03:57:14.631Z,81.32
2019-03-21T03:58:14.619Z,81.22
2019-03-21T03:59:14.635Z,81.32
2019-03-21T04:00:14.582Z,81.12
2019-03-21T04:01:14.609Z,81.01
2019-03-21T04:02:14.567Z,80.81
2019-03-21T04:03:14.546Z,81.12
2019-03-21T04:04:14.535Z,80.88
2019-03-21T04:05:14.520Z,81.12
2019-03-21T04:06:14.517Z,80.71
2019-03-21T04:07:14.647Z,80.60
2019-03-21T04:08:14.553Z,80.81
2019-03-21T04:09:14.482Z,80.81
2019-03-21T04:10:14.484Z,80.60
2019-03-21T04:11:14.456Z,80.71
2019-03-21T04:12:14.444Z,81.01
2019-03-21T04:13:14.436Z,80.67
2019-03-21T04:14:14.439Z,80.81
2019-03-21T04:15:14.454Z,80.40
2019-03-21T04:16:14.401Z,80.40
2019-03-21T04:17:14.394Z,80.57
2019-03-21T04:18:14.378Z,80.91
2019-03-21T04:19:14.368Z,80.60
2019-03-21T04:20:14.361Z,80.91
2019-03-21T04:21:14.407Z,81.01
2019-03-21T04:22:14.361Z,80.60
2019-03-21T04:23:14.332Z,80.91
2019-03-21T04:24:14.311Z,80.71
2019-03-21T04:25:14.305Z,80.91
2019-03-21T04:26:14.386Z,80.09
2019-03-21T04:27:14.290Z,81.01
2019-03-21T04:28:14.272Z,80.91
2019-03-21T04:29:14.254Z,80.81
2019-03-21T04:30:14.243Z,80.09
2019-03-21T04:31:14.237Z,80.81
2019-03-21T04:32:14.267Z,80.19
2019-03-21T04:33:14.211Z,79.99
2019-03-21T04:34:14.286Z,80.77
2019-03-21T04:35:14.194Z,80.91
2019-03-21T04:36:14.183Z,79.99
2019-03-21T04:37:14.175Z,80.19
2019-03-21T04:38:14.155Z,80.19
2019-03-21T04:39:14.146Z,80.88
2019-03-21T04:40:14.204Z,80.71
2019-03-21T04:41:14.126Z,80.19
2019-03-21T04:42:14.156Z,80.77
2019-03-21T04:43:14.098Z,80.71
2019-03-21T04:44:14.093Z,80.71
2019-03-21T04:45:14.082Z,80.91
2019-03-21T04:46:14.066Z,80.51
2019-03-21T04:47:14.103Z,80.16
2019-03-21T04:48:14.047Z,79.89
2019-03-21T04:49:14.033Z,80.09
2019-03-21T04:50:14.020Z,80.30
2019-03-21T04:51:14.086Z,80.19
2019-03-21T04:52:14.006Z,80.30
2019-03-21T04:53:13.991Z,80.30
2019-03-21T04:54:13.977Z,80.40
2019-03-21T04:55:13.971Z,80.09
2019-03-21T04:56:13.957Z,80.09
2019-03-21T04:57:13.959Z,80.05
2019-03-21T04:58:13.997Z,80.30
2019-03-21T04:59:13.930Z,80.19
2019-03-21T05:00:13.918Z,80.19
2019-03-21T05:01:13.901Z,80.19
2019-03-21T05:02:13.918Z,80.81
2019-03-21T05:03:13.930Z,80.81
2019-03-21T05:04:13.875Z,80.71
2019-03-21T05:05:13.857Z,80.91
2019-03-21T05:06:13.848Z,80.88
2019-03-21T05:07:13.834Z,81.01
2019-03-21T05:08:13.835Z,80.40
2019-03-21T05:09:13.825Z,80.09
2019-03-21T05:10:13.802Z,80.81
2019-03-21T05:11:13.791Z,80.71
2019-03-21T05:12:13.779Z,81.01
2019-03-21T05:13:13.834Z,80.71
2019-03-21T05:14:13.900Z,81.01
2019-03-21T05:15:13.747Z,80.71
2019-03-21T05:16:15.001Z,80.51
2019-03-21T05:17:13.731Z,80.81
2019-03-21T05:18:13.721Z,80.71
2019-03-21T05:19:13.704Z,80.71
2019-03-21T05:20:14.476Z,80.51
2019-03-21T05:21:13.685Z,80.30
2019-03-21T05:22:13.676Z,80.91
2019-03-21T05:23:13.666Z,80.40
2019-03-21T05:24:13.653Z,80.81
2019-03-21T05:25:13.639Z,80.60
2019-03-21T05:26:13.641Z,80.40
2019-03-21T05:27:13.632Z,80.40
2019-03-21T05:28:13.609Z,80.60
2019-03-21T05:29:13.600Z,80.71
2019-03-21T05:30:13.631Z,80.51
2019-03-21T05:31:13.584Z,80.81
2019-03-21T05:32:13.571Z,80.40
2019-03-21T05:33:13.555Z,81.01
2019-03-21T05:34:13.538Z,80.60
2019-03-21T05:35:13.616Z,80.60
2019-03-21T05:36:13.523Z,80.60
2019-03-21T05:37:13.507Z,80.40
2019-03-21T05:38:13.495Z,80.51
2019-03-21T05:39:13.484Z,80.98
2019-03-21T05:40:13.480Z,80.98
2019-03-21T05:41:13.528Z,80.57
2019-03-21T05:42:13.456Z,80.71
2019-03-21T05:43:13.444Z,80.51
2019-03-21T05:44:13.433Z,80.81
2019-03-21T05:45:13.420Z,80.81
2019-03-21T05:46:13.459Z,80.67
2019-03-21T05:47:13.395Z,80.88
2019-03-21T05:48:13.389Z,80.16
2019-03-21T05:49:13.377Z,80.36
2019-03-21T05:50:15.032Z,80.46
2019-03-21T05:51:13.355Z,80.05
2019-03-21T05:52:13.388Z,80.26
2019-03-21T05:53:13.340Z,80.46
2019-03-21T05:54:13.327Z,79.75
2019-03-21T05:55:13.344Z,80.05
2019-03-21T05:56:13.331Z,80.57
2019-03-21T05:57:13.316Z,80.26
2019-03-21T05:58:13.273Z,80.05
2019-03-21T05:59:13.283Z,79.96
2019-03-21T06:00:13.260Z,80.26
2019-03-21T06:01:13.241Z,79.64
2019-03-21T06:02:13.264Z,79.64
2019-03-21T06:03:13.219Z,80.05
2019-03-21T06:04:13.209Z,79.64
2019-03-21T06:05:13.202Z,79.96
2019-03-21T06:06:13.192Z,80.26
2019-03-21T06:07:13.181Z,79.75
2019-03-21T06:08:13.212Z,79.54
2019-03-21T06:09:13.158Z,79.61
2019-03-21T06:10:13.149Z,79.64
2019-03-21T06:11:13.136Z,79.64
2019-03-21T06:12:13.140Z,79.54
2019-03-21T06:13:13.113Z,79.64
2019-03-21T06:14:13.101Z,80.02
2019-03-21T06:15:13.093Z,79.64
2019-03-21T06:16:13.080Z,79.54
2019-03-21T06:17:13.102Z,79.64
2019-03-21T06:18:13.063Z,79.64
2019-03-21T06:19:13.052Z,79.54
2019-03-21T06:20:13.038Z,79.54
2019-03-21T06:21:13.020Z,79.64
2019-03-21T06:22:13.097Z,79.44
2019-03-21T06:23:13.007Z,79.64
2019-03-21T06:24:12.987Z,79.44
2019-03-21T06:25:15.737Z,79.61
2019-03-21T06:26:12.974Z,79.75
2019-03-21T06:27:14.771Z,80.16
2019-03-21T06:28:12.990Z,80.05
2019-03-21T06:29:12.933Z,79.50
2019-03-21T06:30:12.921Z,79.54
2019-03-21T06:31:12.930Z,79.71
2019-03-21T06:32:13.188Z,79.61
2019-03-21T06:33:12.937Z,79.61
2019-03-21T06:34:12.925Z,79.50
2019-03-21T06:35:12.873Z,79.61
2019-03-21T06:36:12.860Z,79.30
2019-03-21T06:37:12.847Z,79.20
2019-03-21T06:38:12.842Z,79.30
2019-03-21T06:39:12.868Z,79.10
2019-03-21T06:40:12.813Z,79.10
2019-03-21T06:41:12.799Z,79.00
2019-03-21T06:42:12.792Z,79.10
2019-03-21T06:43:12.776Z,79.50
2019-03-21T06:44:12.813Z,79.50
2019-03-21T06:45:12.803Z,79.06
2019-03-21T06:46:12.747Z,78.96
2019-03-21T06:47:12.736Z,78.89
2019-03-21T06:48:12.722Z,78.55
2019-03-21T06:49:12.716Z,79.06
2019-03-21T06:50:12.746Z,78.86
2019-03-21T06:51:12.687Z,78.65
2019-03-21T06:52:12.684Z,78.55
2019-03-21T06:53:12.668Z,78.65
2019-03-21T06:54:12.655Z,78.34
2019-03-21T06:55:12.669Z,78.55
2019-03-21T06:56:12.679Z,78.55
2019-03-21T06:57:12.624Z,78.86
2019-03-21T06:58:12.616Z,78.55
2019-03-21T06:59:12.600Z,78.45
2019-03-21T07:00:12.587Z,78.86
2019-03-21T07:01:12.594Z,78.24
2019-03-21T07:02:12.566Z,78.34
2019-03-21T07:03:12.556Z,77.32
2019-03-21T07:04:12.548Z,78.34
2019-03-21T07:05:12.539Z,78.24
2019-03-21T07:06:12.539Z,78.04
2019-03-21T07:07:12.627Z,78.14
2019-03-21T07:08:12.501Z,78.34
2019-03-21T07:09:12.494Z,78.24
2019-03-21T07:10:12.541Z,78.34
2019-03-21T07:11:12.486Z,78.24
2019-03-21T07:12:12.461Z,78.24
2019-03-21T07:13:12.460Z,77.94
2019-03-21T07:14:12.440Z,78.04
2019-03-21T07:15:12.431Z,78.04
2019-03-21T07:16:12.414Z,78.04
2019-03-21T07:17:12.406Z,78.45
2019-03-21T07:18:12.407Z,78.45
2019-03-21T07:19:12.376Z,78.24
2019-03-21T07:20:12.365Z,78.34
2019-03-21T07:21:12.357Z,78.24
2019-03-21T07:22:12.592Z,78.14
2019-03-21T07:23:12.349Z,78.14
2019-03-21T07:24:12.369Z,77.83
2019-03-21T07:25:12.358Z,78.45
2019-03-21T07:26:12.300Z,78.14
2019-03-21T07:27:12.287Z,78.24
2019-03-21T07:28:12.289Z,78.34
2019-03-21T07:29:12.298Z,78.24
2019-03-21T07:30:12.320Z,78.20
2019-03-21T07:31:12.243Z,78.34
2019-03-21T07:32:12.269Z,78.11
2019-03-21T07:33:12.222Z,78.20
2019-03-21T07:34:12.213Z,77.83
2019-03-21T07:35:12.205Z,78.14
2019-03-21T07:36:12.201Z,78.31
2019-03-21T07:37:12.175Z,78.00
2019-03-21T07:38:12.173Z,78.75
2019-03-21T07:39:12.162Z,78.65
2019-03-21T07:40:12.200Z,78.52
2019-03-21T07:41:12.167Z,78.72
2019-03-21T07:42:12.134Z,78.52
2019-03-21T07:43:12.129Z,78.55
2019-03-21T07:44:12.101Z,78.04
2019-03-21T07:45:12.091Z,78.24
2019-03-21T07:46:12.084Z,78.45
2019-03-21T07:47:13.428Z,78.45
2019-03-21T07:48:12.061Z,78.52
2019-03-21T07:49:12.046Z,78.72
2019-03-21T07:50:12.038Z,78.41
2019-03-21T07:51:12.031Z,78.52
2019-03-21T07:52:12.020Z,78.52
2019-03-21T07:53:12.000Z,78.20
2019-03-21T07:54:11.997Z,78.52
2019-03-21T07:55:11.977Z,78.55
2019-03-21T07:56:12.022Z,78.52
2019-03-21T07:57:11.977Z,78.11
2019-03-21T07:58:11.947Z,77.83
2019-03-21T07:59:11.941Z,78.52
2019-03-21T08:00:11.934Z,78.41
2019-03-21T08:01:11.914Z,78.41
2019-03-21T08:02:11.933Z,78.52
2019-03-21T08:03:11.889Z,78.52
2019-03-21T08:04:11.880Z,78.72
2019-03-21T08:05:11.872Z,78.52
2019-03-21T08:06:11.855Z,78.61
2019-03-21T08:07:11.844Z,78.20
2019-03-21T08:08:11.887Z,78.82
2019-03-21T08:09:11.839Z,78.41
2019-03-21T08:10:11.823Z,78.52
2019-03-21T08:11:11.805Z,78.82
2019-03-21T08:12:11.802Z,78.86
2019-03-21T08:13:11.811Z,78.86
2019-03-21T08:14:11.821Z,79.02
2019-03-21T08:15:11.754Z,79.23
2019-03-21T08:16:11.745Z,78.86
2019-03-21T08:17:11.757Z,79.37
2019-03-21T08:18:11.751Z,79.33
2019-03-21T08:19:11.759Z,79.43
2019-03-21T08:20:11.705Z,78.96
2019-03-21T08:21:11.692Z,79.16
2019-03-21T08:22:11.711Z,79.06
2019-03-21T08:23:11.673Z,79.47
2019-03-21T08:24:11.741Z,79.43
2019-03-21T08:25:11.645Z,79.27
2019-03-21T08:26:11.634Z,79.02
2019-03-21T08:27:11.629Z,79.13
2019-03-21T08:28:11.616Z,79.33
2019-03-21T08:29:11.608Z,79.33
2019-03-21T08:30:11.635Z,79.47
2019-03-21T08:31:11.584Z,79.33
2019-03-21T08:32:11.568Z,79.47
2019-03-21T08:33:11.554Z,79.53
2019-03-21T08:34:11.546Z,79.57
2019-03-21T08:35:11.579Z,79.33
2019-03-21T08:36:11.521Z,80.15
2019-03-21T08:37:11.559Z,80.05
2019-03-21T08:38:11.501Z,79.98
2019-03-21T08:39:11.493Z,79.98
2019-03-21T08:40:11.481Z,80.15
2019-03-21T08:41:11.516Z,80.05
2019-03-21T08:42:11.503Z,79.94
2019-03-21T08:43:11.448Z,80.46
2019-03-21T08:44:11.439Z,80.46
2019-03-21T08:45:11.425Z,80.05
2019-03-21T08:46:11.418Z,80.35
2019-03-21T08:47:11.413Z,80.15
2019-03-21T08:48:11.393Z,80.15
2019-03-21T08:49:11.381Z,80.15
2019-03-21T08:50:11.372Z,80.05
2019-03-21T08:51:11.361Z,79.74
2019-03-21T08:52:11.396Z,80.05
2019-03-21T08:53:11.333Z,80.15
2019-03-21T08:54:11.324Z,80.05
2019-03-21T08:55:11.311Z,79.84
2019-03-21T08:56:11.305Z,80.05
2019-03-21T08:57:11.339Z,80.01
2019-03-21T08:58:11.280Z,79.91
2019-03-21T08:59:11.271Z,79.29
2019-03-21T09:00:11.257Z,79.29
2019-03-21T09:01:11.246Z,78.88
2019-03-21T09:02:11.284Z,78.99
2019-03-21T09:03:11.222Z,79.29
2019-03-21T09:04:11.213Z,79.16
2019-03-21T09:05:11.205Z,79.39
2019-03-21T09:06:11.193Z,78.75
2019-03-21T09:07:11.230Z,78.54
2019-03-21T09:08:11.173Z,78.48
2019-03-21T09:09:11.160Z,78.48
2019-03-21T09:10:11.152Z,78.64
2019-03-21T09:11:11.201Z,78.78
2019-03-21T09:12:11.127Z,78.68
2019-03-21T09:13:11.119Z,78.58
2019-03-21T09:14:11.100Z,78.38
2019-03-21T09:15:11.097Z,78.38
2019-03-21T09:16:11.145Z,78.44
2019-03-21T09:17:11.134Z,78.34
2019-03-21T09:18:11.064Z,78.64
2019-03-21T09:19:11.099Z,77.83
2019-03-21T09:20:11.034Z,77.38
2019-03-21T09:21:19.043Z,77.52
2019-03-21T09:22:12.012Z,77.62
2019-03-21T09:23:11.001Z,77.59
2019-03-21T09:24:11.008Z,76.97
2019-03-21T09:25:10.980Z,76.67
2019-03-21T09:26:10.979Z,76.77
2019-03-21T09:27:11.007Z,76.56
2019-03-21T09:28:10.949Z,76.60
2019-03-21T09:29:10.941Z,76.46
2019-03-21T09:30:10.926Z,76.16
2019-03-21T09:31:10.915Z,76.97
2019-03-21T09:32:11.029Z,76.56
2019-03-21T09:33:10.897Z,76.36
2019-03-21T09:34:10.886Z,76.67
2019-03-21T09:35:12.465Z,76.19
2019-03-21T09:36:10.861Z,76.81
2019-03-21T09:37:10.918Z,77.22
2019-03-21T09:38:10.870Z,77.11
2019-03-21T09:39:10.831Z,77.18
2019-03-21T09:40:10.826Z,77.42
2019-03-21T09:41:10.807Z,76.56
2019-03-21T09:42:10.794Z,76.67
2019-03-21T09:43:10.831Z,76.26
2019-03-21T09:44:10.777Z,76.77
2019-03-21T09:45:10.761Z,76.46
2019-03-21T09:46:10.818Z,76.77
2019-03-21T09:47:10.743Z,76.50
2019-03-21T09:48:10.735Z,76.60
2019-03-21T09:49:10.736Z,76.46
2019-03-21T09:50:10.706Z,76.16
2019-03-21T09:51:10.742Z,77.11
2019-03-21T09:52:10.686Z,77.08
2019-03-21T09:53:10.673Z,77.11
2019-03-21T09:54:10.712Z,77.28
2019-03-21T09:55:10.653Z,76.97
2019-03-21T09:56:10.658Z,76.87
2019-03-21T09:57:10.650Z,77.31
2019-03-21T09:58:10.625Z,77.42
2019-03-21T09:59:10.608Z,77.48
2019-03-21T10:00:10.608Z,77.48
2019-03-21T10:01:10.585Z,77.72
2019-03-21T10:02:10.625Z,77.62
2019-03-21T10:03:10.574Z,77.62
2019-03-21T10:04:10.610Z,77.52
2019-03-21T10:05:10.558Z,77.52
2019-03-21T10:06:10.536Z,77.42
2019-03-21T10:07:10.568Z,77.72
2019-03-21T10:08:10.518Z,77.48
2019-03-21T10:09:10.502Z,77.28
2019-03-21T10:10:10.581Z,77.31
2019-03-21T10:11:10.484Z,76.46
2019-03-21T10:12:10.477Z,76.16
2019-03-21T10:13:10.460Z,77.08
2019-03-21T10:14:10.449Z,77.48
2019-03-21T10:15:10.436Z,77.38
2019-03-21T10:16:10.493Z,77.48
2019-03-21T10:17:10.430Z,77.28
2019-03-21T10:18:10.414Z,76.36
2019-03-21T10:19:10.389Z,77.34
2019-03-21T10:20:10.377Z,76.53
2019-03-21T10:21:10.367Z,76.53
2019-03-21T10:22:10.407Z,76.93
2019-03-21T10:23:10.345Z,76.53
2019-03-21T10:24:10.339Z,76.16
2019-03-21T10:25:10.330Z,76.12
2019-03-21T10:26:10.313Z,77.04
2019-03-21T10:27:10.389Z,76.32
2019-03-21T10:28:10.291Z,76.63
2019-03-21T10:29:10.281Z,76.43
2019-03-21T10:30:10.273Z,76.22
2019-03-21T10:31:10.261Z,76.53
2019-03-21T10:32:14.422Z,76.63
2019-03-21T10:33:10.304Z,76.32
2019-03-21T10:34:10.230Z,76.22
2019-03-21T10:35:10.219Z,76.46
2019-03-21T10:36:10.203Z,76.63
2019-03-21T10:37:10.196Z,76.63
2019-03-21T10:38:10.181Z,76.32
2019-03-21T10:39:10.217Z,76.43
2019-03-21T10:40:10.165Z,76.43
2019-03-21T10:41:10.150Z,76.53
2019-03-21T10:42:10.137Z,76.53
2019-03-21T10:43:10.615Z,76.22
2019-03-21T10:44:10.178Z,76.12
2019-03-21T10:45:10.114Z,76.43
2019-03-21T10:46:10.145Z,76.22
2019-03-21T10:47:10.087Z,76.02
2019-03-21T10:48:10.075Z,75.71
2019-03-21T10:49:10.067Z,76.43
2019-03-21T10:50:10.054Z,76.73
2019-03-21T10:51:10.085Z,76.43
2019-03-21T10:52:10.034Z,76.43
2019-03-21T10:53:10.028Z,76.32
2019-03-21T10:54:10.005Z,76.32
2019-03-21T10:55:10.001Z,76.32
2019-03-21T10:56:10.069Z,75.68
2019-03-21T10:57:09.973Z,75.71
2019-03-21T10:58:09.961Z,76.22
2019-03-21T10:59:09.960Z,76.09
2019-03-21T11:00:09.938Z,76.29
2019-03-21T11:01:09.937Z,75.98
2019-03-21T11:02:09.970Z,75.48
2019-03-21T11:03:09.913Z,75.88
2019-03-21T11:04:09.900Z,75.71
2019-03-21T11:05:09.889Z,75.82
2019-03-21T11:06:09.878Z,75.57
2019-03-21T11:07:09.913Z,75.68
2019-03-21T11:08:09.918Z,75.88
2019-03-21T11:09:09.841Z,75.44
2019-03-21T11:10:09.838Z,75.48
2019-03-21T11:11:09.820Z,75.34
2019-03-21T11:12:09.808Z,75.48
2019-03-21T11:13:09.801Z,75.27
2019-03-21T11:14:09.833Z,75.27
2019-03-21T11:15:09.779Z,75.34
2019-03-21T11:16:09.763Z,75.27
2019-03-21T11:17:09.799Z,75.16
2019-03-21T11:18:09.742Z,75.16
2019-03-21T11:19:09.731Z,75.27
2019-03-21T11:20:09.767Z,75.27
2019-03-21T11:21:09.712Z,74.76
2019-03-21T11:22:09.706Z,75.98
2019-03-21T11:23:09.739Z,75.68
2019-03-21T11:24:09.675Z,75.48
2019-03-21T11:25:09.668Z,75.48
2019-03-21T11:26:09.657Z,75.48
2019-03-21T11:27:09.645Z,75.48
2019-03-21T11:28:09.677Z,75.27
2019-03-21T11:29:09.707Z,75.48
2019-03-21T11:30:15.943Z,75.37
2019-03-21T11:31:10.603Z,75.88
2019-03-21T11:32:09.592Z,76.29
2019-03-21T11:33:09.580Z,76.22
2019-03-21T11:34:09.591Z,75.68
2019-03-21T11:35:09.602Z,75.41
2019-03-21T11:36:09.545Z,74.55
2019-03-21T11:37:09.536Z,75.61
2019-03-21T11:38:09.538Z,75.27
2019-03-21T11:39:09.511Z,75.07
2019-03-21T11:40:09.546Z,75.48
2019-03-21T11:41:09.496Z,75.48
2019-03-21T11:42:09.488Z,75.57
2019-03-21T11:43:09.477Z,74.55
2019-03-21T11:44:09.465Z,74.55
2019-03-21T11:45:09.460Z,74.62
2019-03-21T11:46:09.479Z,74.45
2019-03-21T11:47:09.425Z,74.55
2019-03-21T11:48:09.422Z,74.86
2019-03-21T11:49:09.409Z,74.55
2019-03-21T11:50:09.527Z,74.66
2019-03-21T11:51:09.390Z,74.45
2019-03-21T11:52:17.748Z,74.66
2019-03-21T11:53:10.361Z,74.52
2019-03-21T11:54:09.346Z,74.83
2019-03-21T11:55:09.335Z,74.21
2019-03-21T11:56:09.372Z,74.01
2019-03-21T11:57:09.360Z,73.50
2019-03-21T11:58:09.304Z,74.01
2019-03-21T11:59:09.297Z,74.11
2019-03-21T12:00:09.285Z,73.19
2019-03-21T12:01:09.273Z,72.79
2019-03-21T12:02:09.305Z,72.79
2019-03-21T12:03:09.247Z,73.40
2019-03-21T12:04:09.241Z,73.40
2019-03-21T12:05:09.222Z,72.69
2019-03-21T12:06:09.298Z,72.17
2019-03-21T12:07:09.207Z,72.48
2019-03-21T12:08:09.194Z,72.99
2019-03-21T12:09:09.179Z,72.99
2019-03-21T12:10:09.177Z,72.96
2019-03-21T12:11:09.163Z,72.75
2019-03-21T12:12:09.186Z,72.65
2019-03-21T12:13:09.138Z,72.62
2019-03-21T12:14:09.124Z,72.24
2019-03-21T12:15:09.113Z,72.14
2019-03-21T12:16:09.204Z,72.14
2019-03-21T12:17:09.091Z,72.55
2019-03-21T12:18:09.149Z,73.16
2019-03-21T12:19:09.076Z,72.65
2019-03-21T12:20:09.065Z,72.86
2019-03-21T12:21:09.093Z,72.75
2019-03-21T12:22:09.036Z,72.34
2019-03-21T12:23:09.026Z,72.41
2019-03-21T12:24:09.013Z,72.14
2019-03-21T12:25:09.002Z,71.91
2019-03-21T12:26:09.077Z,71.70
2019-03-21T12:27:08.985Z,72.31
2019-03-21T12:28:08.969Z,72.31
2019-03-21T12:29:08.962Z,72.41
2019-03-21T12:30:08.953Z,72.01
2019-03-21T12:31:08.937Z,71.70
2019-03-21T12:32:08.973Z,72.31
2019-03-21T12:33:08.929Z,72.01
2019-03-21T12:34:08.952Z,72.52
2019-03-21T12:35:08.901Z,72.96
2019-03-21T12:36:08.885Z,73.40
2019-03-21T12:37:08.878Z,73.16
2019-03-21T12:38:08.860Z,73.26
2019-03-21T12:39:08.849Z,73.06
2019-03-21T12:40:08.910Z,72.75
2019-03-21T12:41:08.829Z,72.65
2019-03-21T12:42:08.823Z,72.86
2019-03-21T12:43:08.807Z,73.57
2019-03-21T12:44:08.861Z,73.33
2019-03-21T12:45:08.788Z,73.23
2019-03-21T12:46:08.773Z,72.24
2019-03-21T12:47:08.764Z,72.24
2019-03-21T12:48:08.757Z,71.70
2019-03-21T12:49:08.745Z,72.04
2019-03-21T12:50:08.778Z,72.24
2019-03-21T12:51:08.718Z,72.21
2019-03-21T12:52:08.709Z,72.31